createdAt,value
2018-02-10T00:02:24.049Z,16.17
2018-02-10T00:04:51.998Z,13.63
2018-02-10T00:07:19.961Z,11.43
2018-02-10T00:09:47.951Z,10.90
2018-02-10T00:12:15.883Z,8.60
2018-02-10T00:14:43.866Z,11.40
2018-02-10T00:17:11.938Z,13.97
2018-02-10T00:19:39.882Z,17.73
2018-02-10T00:22:07.955Z,19.70
2018-02-10T00:24:36.736Z,20.07
2018-02-10T00:27:04.654Z,17.97
2018-02-10T00:29:32.606Z,20.70
2018-02-10T00:32:00.575Z,19.50
2018-02-10T00:34:28.590Z,19.33
2018-02-10T00:36:56.629Z,22.20
2018-02-10T00:39:24.523Z,20.10
2018-02-10T00:41:52.686Z,30.00
2018-02-10T00:44:20.698Z,23.63
2018-02-10T00:46:48.700Z,18.30
2018-02-10T00:49:16.646Z,24.63
2018-02-10T00:51:44.633Z,18.03
2018-02-10T00:54:12.697Z,20.20
2018-02-10T00:56:40.706Z,19.63
2018-02-10T00:59:08.625Z,19.63
2018-02-10T01:01:36.577Z,23.23
2018-02-10T01:04:04.512Z,22.60
2018-02-10T01:06:32.482Z,22.00
2018-02-10T01:09:00.435Z,24.33
2018-02-10T01:11:28.329Z,24.63
2018-02-10T01:13:56.349Z,27.03
2018-02-10T01:16:24.307Z,25.50
2018-02-10T01:18:52.297Z,26.77
2018-02-10T01:21:20.294Z,16.70
2018-02-10T01:23:48.259Z,16.40
2018-02-10T01:26:16.599Z,15.90
2018-02-10T01:28:44.579Z,16.23
2018-02-10T01:31:12.534Z,17.20
2018-02-10T01:33:40.502Z,16.10
2018-02-10T01:36:08.490Z,13.90
2018-02-10T01:38:36.469Z,13.40
2018-02-10T01:41:04.430Z,13.87
2018-02-10T01:43:32.352Z,15.47
2018-02-10T01:46:00.282Z,13.60
2018-02-10T01:48:28.474Z,12.93
2018-02-10T01:50:56.442Z,15.17
2018-02-10T01:53:24.387Z,14.37
2018-02-10T01:55:52.345Z,15.60
2018-02-10T01:58:20.303Z,17.30
2018-02-10T02:00:48.282Z,17.00
2018-02-10T02:03:16.291Z,14.40
2018-02-10T02:05:44.264Z,13.70
2018-02-10T02:08:12.225Z,13.13
2018-02-10T02:10:40.234Z,15.70
2018-02-10T02:13:08.186Z,14.93
2018-02-10T02:15:36.207Z,15.90
2018-02-10T02:18:04.189Z,15.57
2018-02-10T02:20:32.197Z,26.17
2018-02-10T02:23:00.155Z,20.63
2018-02-10T02:25:28.186Z,20.80
2018-02-10T02:27:56.810Z,21.10
2018-02-10T02:30:24.844Z,18.47
2018-02-10T02:32:52.847Z,18.47
2018-02-10T02:35:20.802Z,17.80
2018-02-10T02:37:48.790Z,19.00
2018-02-10T02:40:16.812Z,17.33
2018-02-10T02:42:44.834Z,17.20
2018-02-10T02:45:12.806Z,20.60
2018-02-10T02:47:40.761Z,23.10
2018-02-10T02:50:08.816Z,19.60
2018-02-10T02:52:36.750Z,21.67
2018-02-10T02:55:04.770Z,22.30
2018-02-10T02:57:32.694Z,20.63
2018-02-10T03:00:00.681Z,16.30
2018-02-10T03:02:28.715Z,15.37
2018-02-10T03:04:56.709Z,12.63
2018-02-10T03:07:24.703Z,12.47
2018-02-10T03:09:53.523Z,11.87
2018-02-10T03:12:21.684Z,15.73
2018-02-10T03:14:49.671Z,12.47
2018-02-10T03:17:17.650Z,11.57
2018-02-10T03:19:45.652Z,12.60
2018-02-10T03:22:13.675Z,9.70
2018-02-10T03:24:41.674Z,9.00
2018-02-10T03:27:09.666Z,9.53
2018-02-10T03:29:37.857Z,9.03
2018-02-10T03:32:05.803Z,9.77
2018-02-10T03:34:33.809Z,12.50
2018-02-10T03:37:01.758Z,11.80
2018-02-10T03:39:29.723Z,14.43
2018-02-10T03:41:57.729Z,13.30
2018-02-10T03:44:25.806Z,15.03
2018-02-10T03:46:53.835Z,16.27
2018-02-10T03:49:21.877Z,12.33
2018-02-10T03:51:49.836Z,11.20
2018-02-10T03:54:17.790Z,12.40
2018-02-10T03:56:45.908Z,12.73
2018-02-10T03:59:13.850Z,12.97
2018-02-10T04:01:41.785Z,13.07
2018-02-10T04:04:09.658Z,14.00
2018-02-10T04:06:37.619Z,16.63
2018-02-10T04:09:05.666Z,14.93
2018-02-10T04:11:33.639Z,18.63
2018-02-10T04:14:01.675Z,17.60
2018-02-10T04:16:29.650Z,15.80
2018-02-10T04:18:57.602Z,16.47
2018-02-10T04:21:25.581Z,17.20
2018-02-10T04:23:53.623Z,19.60
2018-02-10T04:26:21.570Z,21.53
2018-02-10T04:28:49.491Z,21.53
2018-02-10T04:31:18.394Z,20.60
2018-02-10T04:33:46.378Z,18.50
2018-02-10T04:36:14.382Z,17.30
2018-02-10T04:38:42.415Z,18.30
2018-02-10T04:41:10.370Z,20.00
2018-02-10T04:43:38.323Z,21.00
2018-02-10T04:46:07.541Z,22.80
2018-02-10T04:48:35.527Z,23.57
2018-02-10T04:51:03.527Z,20.87
2018-02-10T04:53:32.403Z,20.80
2018-02-10T04:56:00.356Z,20.87
2018-02-10T04:58:28.314Z,16.97
2018-02-10T05:00:56.295Z,16.00
2018-02-10T05:03:24.287Z,16.40
2018-02-10T05:05:52.251Z,14.47
2018-02-10T05:08:20.217Z,18.47
2018-02-10T05:10:48.192Z,16.20
2018-02-10T05:13:16.241Z,19.83
2018-02-10T05:15:44.233Z,23.00
2018-02-10T05:18:12.258Z,22.63
2018-02-10T05:20:40.234Z,17.17
2018-02-10T05:23:08.202Z,17.87
2018-02-10T05:25:36.115Z,15.50
2018-02-10T05:28:04.218Z,22.03
2018-02-10T05:30:32.157Z,19.50
2018-02-10T05:33:00.521Z,22.90
2018-02-10T05:35:28.499Z,14.00
2018-02-10T05:37:56.457Z,12.67
2018-02-10T05:40:24.439Z,13.10
2018-02-10T05:42:52.430Z,12.50
2018-02-10T05:45:20.381Z,11.63
2018-02-10T05:47:48.354Z,9.47
2018-02-10T05:50:16.316Z,9.43
2018-02-10T05:52:44.258Z,11.60
2018-02-10T05:55:12.202Z,11.80
2018-02-10T05:57:40.190Z,16.33
2018-02-10T06:00:08.437Z,11.00
2018-02-10T06:02:36.429Z,19.10
2018-02-10T06:05:04.406Z,19.93
2018-02-10T06:07:32.452Z,21.10
2018-02-10T06:10:00.492Z,21.93
2018-02-10T06:12:28.408Z,20.67
2018-02-10T06:14:56.428Z,24.33
2018-02-10T06:17:24.437Z,24.50
2018-02-10T06:19:52.378Z,27.20
2018-02-10T06:22:20.362Z,21.13
2018-02-10T06:24:48.427Z,26.90
2018-02-10T06:27:16.444Z,28.27
2018-02-10T06:29:44.462Z,27.37
2018-02-10T06:32:12.396Z,24.80
2018-02-10T06:34:40.613Z,28.73
2018-02-10T06:37:08.601Z,30.07
2018-02-10T06:39:36.587Z,41.00
2018-02-10T06:42:04.533Z,34.70
2018-02-10T06:44:32.502Z,36.00
2018-02-10T06:47:00.575Z,46.43
2018-02-10T06:49:28.578Z,54.93
2018-02-10T06:51:56.545Z,48.40
2018-02-10T06:54:24.418Z,47.30
2018-02-10T06:56:52.474Z,51.43
2018-02-10T06:59:20.678Z,47.27
2018-02-10T07:01:48.998Z,52.37
2018-02-10T07:04:17.008Z,47.63
2018-02-10T07:06:45.012Z,45.77
2018-02-10T07:09:13.131Z,58.07
2018-02-10T07:11:41.262Z,62.40
2018-02-10T07:14:09.266Z,77.60
2018-02-10T07:16:37.306Z,85.10
2018-02-10T07:19:05.448Z,94.80
2018-02-10T07:21:33.435Z,88.27
2018-02-10T07:24:01.458Z,86.70
2018-02-10T07:26:29.510Z,76.93
2018-02-10T07:28:57.608Z,63.40
2018-02-10T07:31:25.597Z,62.53
2018-02-10T07:33:53.589Z,62.70
2018-02-10T07:36:21.805Z,84.97
2018-02-10T07:38:49.800Z,87.70
2018-02-10T07:41:17.728Z,92.40
2018-02-10T07:43:45.703Z,88.73
2018-02-10T07:46:13.648Z,68.37
2018-02-10T07:48:41.606Z,52.80
2018-02-10T07:51:09.547Z,47.07
2018-02-10T07:53:37.538Z,39.50
2018-02-10T07:56:05.599Z,45.07
2018-02-10T07:58:33.559Z,34.73
2018-02-10T08:01:01.465Z,29.93
2018-02-10T08:03:29.735Z,36.00
2018-02-10T08:05:57.780Z,30.43
2018-02-10T08:08:25.773Z,30.70
2018-02-10T08:10:53.718Z,32.00
2018-02-10T08:13:21.684Z,33.53
2018-02-10T08:15:49.680Z,40.50
2018-02-10T08:18:17.596Z,37.60
2018-02-10T08:20:45.533Z,40.50
2018-02-10T08:23:13.579Z,46.20
2018-02-10T08:25:41.537Z,57.50
2018-02-10T08:28:09.554Z,56.33
2018-02-10T08:30:37.529Z,61.97
2018-02-10T08:33:05.540Z,44.70
2018-02-10T08:35:33.495Z,34.30
2018-02-10T08:38:01.569Z,24.40
2018-02-10T08:40:29.527Z,20.20
2018-02-10T08:42:57.615Z,18.10
2018-02-10T08:45:25.842Z,14.67
2018-02-10T08:47:53.821Z,15.60
2018-02-10T08:50:21.770Z,15.97
2018-02-10T08:52:49.726Z,15.13
2018-02-10T08:55:17.754Z,15.20
2018-02-10T08:57:45.733Z,14.33
2018-02-10T09:00:13.763Z,25.97
2018-02-10T09:02:41.699Z,30.50
2018-02-10T09:05:10.178Z,39.07
2018-02-10T09:07:38.150Z,44.43
2018-02-10T09:10:06.084Z,65.70
2018-02-10T09:12:34.093Z,77.00
2018-02-10T09:15:02.219Z,89.37
2018-02-10T09:17:30.180Z,92.70
2018-02-10T09:19:58.235Z,87.00
2018-02-10T09:22:26.233Z,95.87
2018-02-10T09:24:54.176Z,130.70
2018-02-10T09:27:22.201Z,125.10
2018-02-10T09:29:50.202Z,100.70
2018-02-10T09:32:18.151Z,108.80
2018-02-10T09:34:46.201Z,107.40
2018-02-10T09:37:14.191Z,95.33
2018-02-10T09:39:42.560Z,90.70
2018-02-10T09:42:10.593Z,81.37
2018-02-10T09:44:38.535Z,95.60
2018-02-10T09:47:06.560Z,77.37
2018-02-10T09:49:34.465Z,58.50
2018-02-10T09:52:02.474Z,54.53
2018-02-10T09:54:30.427Z,48.70
2018-02-10T09:56:58.395Z,48.57
2018-02-10T09:59:26.406Z,42.63
2018-02-10T10:01:54.355Z,48.00
2018-02-10T10:04:22.360Z,43.07
2018-02-10T10:06:50.926Z,41.17
2018-02-10T10:09:18.942Z,28.23
2018-02-10T10:11:46.981Z,29.40
2018-02-10T10:14:14.968Z,29.97
2018-02-10T10:16:42.946Z,35.47
2018-02-10T10:19:11.065Z,30.80
2018-02-10T10:21:39.020Z,28.20
2018-02-10T10:24:07.106Z,30.50
2018-02-10T10:26:35.051Z,62.77
2018-02-10T10:29:03.163Z,39.97
2018-02-10T10:31:31.285Z,42.73
2018-02-10T10:33:59.397Z,38.13
2018-02-10T10:36:27.434Z,50.37
2018-02-10T10:38:55.611Z,40.77
2018-02-10T10:41:23.586Z,30.97
2018-02-10T10:43:51.627Z,23.13
2018-02-10T10:46:19.575Z,22.10
2018-02-10T10:48:47.494Z,16.70
2018-02-10T10:51:15.497Z,16.10
2018-02-10T10:53:43.485Z,15.13
2018-02-10T10:56:11.482Z,18.97
2018-02-10T10:58:39.569Z,13.30
2018-02-10T11:01:07.706Z,11.43
2018-02-10T11:03:35.762Z,13.00
2018-02-10T11:06:03.790Z,12.17
2018-02-10T11:08:32.302Z,11.63
2018-02-10T11:11:00.344Z,14.33
2018-02-10T11:13:28.362Z,15.63
2018-02-10T11:15:56.428Z,19.23
2018-02-10T11:18:24.451Z,23.60
2018-02-10T11:20:52.502Z,23.20
2018-02-10T11:23:20.498Z,22.90
2018-02-10T11:25:48.486Z,22.80
2018-02-10T11:28:16.506Z,25.47
2018-02-10T11:30:44.633Z,19.10
2018-02-10T11:33:12.556Z,16.27
2018-02-10T11:35:40.524Z,16.90
2018-02-10T11:38:08.494Z,20.70
2018-02-10T11:40:36.481Z,21.37
2018-02-10T11:43:04.695Z,21.23
2018-02-10T11:45:32.679Z,25.10
2018-02-10T11:48:00.677Z,36.80
2018-02-10T11:50:28.666Z,48.67
2018-02-10T11:52:56.638Z,66.13
2018-02-10T11:55:24.597Z,49.37
2018-02-10T11:57:52.657Z,62.87
2018-02-10T12:00:20.621Z,70.57
2018-02-10T12:02:48.599Z,77.10
2018-02-10T12:05:16.598Z,96.70
2018-02-10T12:07:44.600Z,85.67
2018-02-10T12:10:12.980Z,78.93
2018-02-10T12:12:40.977Z,52.60
2018-02-10T12:15:09.007Z,35.80
2018-02-10T12:17:36.944Z,38.30
2018-02-10T12:20:04.970Z,33.80
2018-02-10T12:22:32.982Z,24.80
2018-02-10T12:25:01.009Z,34.53
2018-02-10T12:27:29.054Z,31.00
2018-02-10T12:29:57.077Z,32.07
2018-02-10T12:32:25.067Z,46.87
2018-02-10T12:34:53.082Z,26.33
2018-02-10T12:37:21.102Z,21.77
2018-02-10T12:39:49.075Z,26.37
2018-02-10T12:42:17.074Z,30.07
2018-02-10T12:44:45.270Z,20.30
2018-02-10T12:47:13.451Z,22.20
2018-02-10T12:49:41.530Z,17.27
2018-02-10T12:52:09.453Z,21.67
2018-02-10T12:54:37.439Z,16.03
2018-02-10T12:57:05.482Z,10.93
2018-02-10T12:59:33.495Z,9.33
2018-02-10T13:02:01.489Z,8.57
2018-02-10T13:04:29.500Z,13.47
2018-02-10T13:06:57.505Z,20.80
2018-02-10T13:09:25.557Z,18.80
2018-02-10T13:11:53.874Z,39.17
2018-02-10T13:14:21.826Z,14.70
2018-02-10T13:16:49.805Z,27.40
2018-02-10T13:19:17.706Z,26.70
2018-02-10T13:21:45.680Z,34.07
2018-02-10T13:24:13.657Z,39.33
2018-02-10T13:26:41.610Z,36.67
2018-02-10T13:29:09.581Z,33.30
2018-02-10T13:31:37.554Z,31.90
2018-02-10T13:34:05.582Z,32.33
2018-02-10T13:36:33.570Z,21.03
2018-02-10T13:39:01.582Z,21.50
2018-02-10T13:41:29.547Z,18.33
2018-02-10T13:43:57.546Z,11.20
2018-02-10T13:46:25.866Z,15.53
2018-02-10T13:48:53.826Z,23.47
2018-02-10T13:51:21.839Z,12.83
2018-02-10T13:53:49.754Z,11.70
2018-02-10T13:56:17.746Z,7.10
2018-02-10T13:58:45.802Z,9.17
2018-02-10T14:01:13.854Z,11.60
2018-02-10T14:03:41.870Z,9.97
2018-02-10T14:06:09.897Z,14.70
2018-02-10T14:08:37.863Z,14.13
2018-02-10T14:11:05.774Z,13.87
2018-02-10T14:13:34.139Z,13.57
2018-02-10T14:16:02.070Z,11.37
2018-02-10T14:18:30.042Z,10.27
2018-02-10T14:20:58.039Z,14.80
2018-02-10T14:23:26.041Z,25.83
2018-02-10T14:25:54.044Z,30.83
2018-02-10T14:28:22.055Z,30.07
2018-02-10T14:30:49.944Z,31.43
2018-02-10T14:33:18.011Z,21.03
2018-02-10T14:35:45.967Z,23.17
2018-02-10T14:38:13.968Z,19.73
2018-02-10T14:40:41.996Z,26.87
2018-02-10T14:43:09.993Z,43.87
2018-02-10T14:45:37.997Z,36.53
2018-02-10T14:48:06.110Z,23.63
2018-02-10T14:50:34.038Z,15.20
2018-02-10T14:53:02.034Z,15.80
2018-02-10T14:55:29.998Z,15.00
2018-02-10T14:57:58.042Z,21.23
2018-02-10T15:00:26.039Z,14.53
2018-02-10T15:02:54.072Z,17.43
2018-02-10T15:05:22.028Z,12.47
2018-02-10T15:07:50.052Z,9.10
2018-02-10T15:10:18.063Z,9.70
2018-02-10T15:12:46.030Z,11.77
2018-02-10T15:15:14.341Z,12.97
2018-02-10T15:17:42.285Z,9.90
2018-02-10T15:20:10.378Z,11.73
2018-02-10T15:22:38.479Z,15.73
2018-02-10T15:25:06.582Z,12.40
2018-02-10T15:27:34.579Z,14.20
2018-02-10T15:30:14.422Z,25.33
2018-02-10T15:32:54.062Z,31.03
2018-02-10T15:35:22.877Z,27.33
2018-02-10T15:37:50.959Z,22.73
2018-02-10T15:40:18.991Z,24.53
2018-02-10T15:42:46.935Z,24.30
2018-02-10T15:45:14.860Z,24.70
2018-02-10T15:47:42.903Z,14.90
2018-02-10T15:50:10.990Z,26.03
2018-02-10T15:52:38.937Z,12.60
2018-02-10T15:55:06.982Z,23.50
2018-02-10T15:57:35.014Z,12.20
2018-02-10T16:00:04.919Z,18.10
2018-02-10T16:02:32.935Z,11.63
2018-02-10T16:05:00.930Z,16.03
2018-02-10T16:07:28.874Z,18.77
2018-02-10T16:09:56.939Z,11.70
2018-02-10T16:12:25.218Z,8.10
2018-02-10T16:14:53.477Z,9.37
2018-02-10T16:17:21.795Z,6.80
2018-02-10T16:19:49.805Z,6.10
2018-02-10T16:22:17.711Z,6.27
2018-02-10T16:24:45.760Z,9.13
2018-02-10T16:27:13.799Z,14.23
2018-02-10T16:29:41.822Z,10.93
2018-02-10T16:32:09.822Z,8.43
2018-02-10T16:34:37.815Z,13.37
2018-02-10T16:37:05.954Z,10.07
2018-02-10T16:39:33.872Z,13.43
2018-02-10T16:42:01.991Z,17.13
2018-02-10T16:44:30.010Z,9.07
2018-02-10T16:46:58.122Z,18.20
2018-02-10T16:49:26.132Z,12.20
2018-02-10T16:51:54.220Z,10.17
2018-02-10T16:54:22.184Z,8.77
2018-02-10T16:56:50.117Z,9.50
2018-02-10T16:59:18.072Z,11.63
2018-02-10T17:01:46.047Z,8.07
2018-02-10T17:04:14.000Z,8.73
2018-02-10T17:06:41.994Z,8.00
2018-02-10T17:09:10.017Z,4.53
2018-02-10T17:11:37.999Z,5.20
2018-02-10T17:14:05.914Z,4.17
2018-02-10T17:16:33.974Z,9.17
2018-02-10T17:19:02.367Z,7.03
2018-02-10T17:21:30.371Z,9.77
2018-02-10T17:23:58.354Z,6.60
2018-02-10T17:26:26.335Z,5.47
2018-02-10T17:28:54.250Z,8.47
2018-02-10T17:31:22.238Z,9.63
2018-02-10T17:33:50.257Z,4.77
2018-02-10T17:36:18.294Z,7.03
2018-02-10T17:38:46.272Z,6.77
2018-02-10T17:41:14.341Z,10.20
2018-02-10T17:43:42.389Z,6.23
2018-02-10T17:46:10.574Z,10.67
2018-02-10T17:48:38.615Z,6.33
2018-02-10T17:51:06.615Z,13.03
2018-02-10T17:53:34.590Z,7.10
2018-02-10T17:56:02.618Z,6.30
2018-02-10T17:58:30.547Z,5.60
2018-02-10T18:00:58.513Z,2.73
2018-02-10T18:03:26.644Z,3.60
2018-02-10T18:05:54.628Z,4.80
2018-02-10T18:08:22.674Z,3.50
2018-02-10T18:10:50.722Z,4.40
2018-02-10T18:13:18.769Z,3.47
2018-02-10T18:15:46.762Z,6.60
2018-02-10T18:18:14.755Z,4.20
2018-02-10T18:20:43.596Z,3.70
2018-02-10T18:23:11.550Z,4.03
2018-02-10T18:25:39.539Z,4.70
2018-02-10T18:28:07.566Z,3.07
2018-02-10T18:30:35.534Z,4.30
2018-02-10T18:33:03.642Z,4.97
2018-02-10T18:35:31.598Z,4.43
2018-02-10T18:37:59.587Z,4.73
2018-02-10T18:40:27.542Z,4.20
2018-02-10T18:42:55.618Z,3.83
2018-02-10T18:45:23.614Z,5.30
2018-02-10T18:47:51.646Z,6.60
2018-02-10T18:50:19.603Z,6.33
2018-02-10T18:52:47.558Z,2.90
2018-02-10T18:55:15.573Z,5.23
2018-02-10T18:57:43.550Z,8.03
2018-02-10T19:00:11.602Z,3.37
2018-02-10T19:02:39.502Z,3.60
2018-02-10T19:05:07.547Z,5.00
2018-02-10T19:07:35.496Z,8.03
2018-02-10T19:10:03.522Z,11.67
2018-02-10T19:12:31.631Z,17.10
2018-02-10T19:14:59.590Z,16.90
2018-02-10T19:17:27.519Z,10.80
2018-02-10T19:19:55.436Z,8.60
2018-02-10T19:22:23.742Z,6.97
2018-02-10T19:24:51.759Z,4.77
2018-02-10T19:27:20.584Z,5.13
2018-02-10T19:29:48.562Z,4.20
2018-02-10T19:32:16.582Z,6.90
2018-02-10T19:34:44.643Z,4.73
2018-02-10T19:37:13.505Z,5.30
2018-02-10T19:39:41.657Z,4.40
2018-02-10T19:42:09.729Z,2.83
2018-02-10T19:44:37.697Z,5.33
2018-02-10T19:47:05.643Z,5.73
2018-02-10T19:49:33.619Z,7.80
2018-02-10T19:52:01.503Z,2.87
2018-02-10T19:54:29.923Z,6.80
2018-02-10T19:56:58.180Z,4.80
2018-02-10T19:59:26.112Z,6.50
2018-02-10T20:01:54.066Z,7.87
2018-02-10T20:04:21.997Z,7.57
2018-02-10T20:06:49.930Z,6.37
2018-02-10T20:09:17.895Z,7.33
2018-02-10T20:11:45.949Z,5.77
2018-02-10T20:14:13.903Z,4.50
2018-02-10T20:16:41.807Z,8.17
2018-02-10T20:19:09.768Z,9.47
2018-02-10T20:21:37.853Z,8.93
2018-02-10T20:24:06.373Z,7.90
2018-02-10T20:26:34.379Z,10.00
2018-02-10T20:29:02.466Z,10.63
2018-02-10T20:31:30.630Z,14.33
2018-02-10T20:33:58.638Z,6.87
2018-02-10T20:36:26.586Z,7.00
2018-02-10T20:38:54.631Z,11.93
2018-02-10T20:41:22.635Z,8.07
2018-02-10T20:43:50.727Z,7.23
2018-02-10T20:46:18.847Z,4.50
2018-02-10T20:48:46.778Z,4.10
2018-02-10T20:51:14.719Z,3.77
2018-02-10T20:53:42.748Z,15.13
2018-02-10T20:56:10.737Z,14.30
2018-02-10T20:58:38.954Z,9.67
2018-02-10T21:01:06.922Z,7.20
2018-02-10T21:03:34.846Z,8.43
2018-02-10T21:06:02.870Z,19.70
2018-02-10T21:08:30.970Z,11.63
2018-02-10T21:10:58.885Z,12.50
2018-02-10T21:13:26.916Z,9.80
2018-02-10T21:15:54.946Z,12.00
2018-02-10T21:18:22.927Z,10.40
2018-02-10T21:20:50.906Z,10.60
2018-02-10T21:23:18.923Z,12.17
2018-02-10T21:25:47.487Z,17.63
2018-02-10T21:28:15.450Z,18.17
2018-02-10T21:30:43.383Z,14.53
2018-02-10T21:33:11.436Z,13.67
2018-02-10T21:35:39.398Z,13.30
2018-02-10T21:38:07.321Z,11.53
2018-02-10T21:40:35.271Z,5.10
2018-02-10T21:43:03.290Z,15.00
2018-02-10T21:45:31.250Z,9.57
2018-02-10T21:47:59.172Z,8.80
2018-02-10T21:50:27.086Z,12.10
2018-02-10T21:52:55.074Z,13.90
2018-02-10T21:55:23.071Z,6.17
2018-02-10T21:57:51.064Z,9.83
2018-02-10T22:00:19.106Z,7.80
2018-02-10T22:02:47.105Z,4.00
2018-02-10T22:05:15.123Z,7.17
2018-02-10T22:07:43.090Z,9.03
2018-02-10T22:10:11.043Z,5.53
2018-02-10T22:12:39.030Z,2.43
2018-02-10T22:15:07.025Z,2.93
2018-02-10T22:17:34.949Z,3.13
2018-02-10T22:20:02.890Z,3.10
2018-02-10T22:22:30.892Z,2.73
2018-02-10T22:24:58.887Z,4.47
2018-02-10T22:27:27.424Z,4.13
2018-02-10T22:29:55.615Z,5.10
2018-02-10T22:32:23.610Z,2.80
2018-02-10T22:34:51.616Z,0.70
2018-02-10T22:37:19.604Z,1.00
2018-02-10T22:39:47.554Z,0.80
2018-02-10T22:42:15.519Z,0.90
2018-02-10T22:44:43.542Z,0.73
2018-02-10T22:47:11.467Z,0.70
2018-02-10T22:49:39.386Z,1.67
2018-02-10T22:52:07.331Z,1.03
2018-02-10T22:54:35.335Z,0.87
2018-02-10T22:57:03.307Z,1.47
2018-02-10T22:59:31.399Z,1.60
2018-02-10T23:01:59.437Z,1.60
2018-02-10T23:04:27.423Z,0.77
2018-02-10T23:06:55.545Z,0.50
2018-02-10T23:09:23.563Z,0.50
2018-02-10T23:11:51.599Z,0.60
2018-02-10T23:14:19.649Z,0.60
2018-02-10T23:16:47.773Z,0.70
2018-02-10T23:19:15.830Z,0.90
2018-02-10T23:21:43.942Z,0.60
2018-02-10T23:24:11.934Z,0.93
2018-02-10T23:26:39.947Z,0.50
2018-02-10T23:29:08.265Z,0.50
2018-02-10T23:31:36.214Z,0.50
2018-02-10T23:34:04.265Z,0.50
2018-02-10T23:36:32.359Z,0.30
2018-02-10T23:39:00.258Z,0.50
2018-02-10T23:41:28.224Z,0.70
2018-02-10T23:43:56.151Z,0.40
2018-02-10T23:46:24.097Z,0.40
2018-02-10T23:48:52.091Z,0.50
2018-02-10T23:51:20.225Z,0.53
2018-02-10T23:53:48.232Z,0.40
2018-02-10T23:56:16.208Z,0.50
2018-02-10T23:58:44.195Z,0.40
